sensor_id;sensor_type;location;lat;lon;timestamp;P1;durP1;ratioP1;P2;durP2;ratioP2
74541;SDS011;63015;45.378;20.360;2023-12-20T00:01:36;63.80;;;25.67;;
74541;SDS011;63015;45.378;20.360;2023-12-20T00:03:37;73.63;;;29.60;;
74541;SDS011;63015;45.378;20.360;2023-12-20T00:05:37;71.78;;;29.77;;
74541;SDS011;63015;45.378;20.360;2023-12-20T00:07:42;76.40;;;30.50;;
74541;SDS011;63015;45.378;20.360;2023-12-20T00:09:42;91.82;;;32.45;;
74541;SDS011;63015;45.378;20.360;2023-12-20T00:11:43;84.72;;;31.75;;
74541;SDS011;63015;45.378;20.360;2023-12-20T00:13:43;85.18;;;32.28;;
74541;SDS011;63015;45.378;20.360;2023-12-20T00:15:44;73.45;;;32.38;;
74541;SDS011;63015;45.378;20.360;2023-12-20T00:17:45;69.65;;;30.05;;
74541;SDS011;63015;45.378;20.360;2023-12-20T00:19:45;75.65;;;31.40;;
74541;SDS011;63015;45.378;20.360;2023-12-20T00:21:46;86.72;;;36.33;;
74541;SDS011;63015;45.378;20.360;2023-12-20T00:23:46;74.05;;;34.33;;
74541;SDS011;63015;45.378;20.360;2023-12-20T00:25:47;76.05;;;31.33;;
74541;SDS011;63015;45.378;20.360;2023-12-20T00:27:47;60.13;;;26.67;;
74541;SDS011;63015;45.378;20.360;2023-12-20T00:29:56;70.15;;;32.20;;
74541;SDS011;63015;45.378;20.360;2023-12-20T00:31:56;84.50;;;36.30;;
74541;SDS011;63015;45.378;20.360;2023-12-20T00:33:57;70.63;;;32.28;;
74541;SDS011;63015;45.378;20.360;2023-12-20T00:35:58;60.80;;;28.60;;
74541;SDS011;63015;45.378;20.360;2023-12-20T00:38:05;47.70;;;23.60;;
74541;SDS011;63015;45.378;20.360;2023-12-20T00:40:07;53.03;;;23.45;;
74541;SDS011;63015;45.378;20.360;2023-12-20T00:42:08;45.10;;;20.38;;
74541;SDS011;63015;45.378;20.360;2023-12-20T00:44:08;52.00;;;22.52;;
74541;SDS011;63015;45.378;20.360;2023-12-20T00:46:11;67.97;;;27.92;;
74541;SDS011;63015;45.378;20.360;2023-12-20T00:48:11;58.10;;;25.45;;
74541;SDS011;63015;45.378;20.360;2023-12-20T00:50:12;54.60;;;23.85;;
74541;SDS011;63015;45.378;20.360;2023-12-20T00:52:12;53.65;;;25.25;;
74541;SDS011;63015;45.378;20.360;2023-12-20T00:54:13;46.05;;;20.27;;
74541;SDS011;63015;45.378;20.360;2023-12-20T00:56:14;60.08;;;25.40;;
74541;SDS011;63015;45.378;20.360;2023-12-20T00:58:15;63.38;;;25.83;;
74541;SDS011;63015;45.378;20.360;2023-12-20T01:00:15;69.60;;;25.83;;
74541;SDS011;63015;45.378;20.360;2023-12-20T01:02:16;74.20;;;29.70;;
74541;SDS011;63015;45.378;20.360;2023-12-20T01:04:16;88.55;;;35.60;;
74541;SDS011;63015;45.378;20.360;2023-12-20T01:06:20;72.35;;;31.83;;
74541;SDS011;63015;45.378;20.360;2023-12-20T01:08:21;58.97;;;25.75;;
74541;SDS011;63015;45.378;20.360;2023-12-20T01:10:21;76.20;;;28.60;;
74541;SDS011;63015;45.378;20.360;2023-12-20T01:12:23;70.10;;;28.63;;
74541;SDS011;63015;45.378;20.360;2023-12-20T01:14:23;52.15;;;24.48;;
74541;SDS011;63015;45.378;20.360;2023-12-20T01:16:24;55.58;;;24.63;;
74541;SDS011;63015;45.378;20.360;2023-12-20T01:18:24;71.13;;;28.42;;
74541;SDS011;63015;45.378;20.360;2023-12-20T01:20:25;64.50;;;28.38;;
74541;SDS011;63015;45.378;20.360;2023-12-20T01:22:25;63.88;;;27.70;;
74541;SDS011;63015;45.378;20.360;2023-12-20T01:24:27;52.40;;;22.45;;
74541;SDS011;63015;45.378;20.360;2023-12-20T01:26:28;70.13;;;30.90;;
74541;SDS011;63015;45.378;20.360;2023-12-20T01:28:28;46.03;;;21.02;;
74541;SDS011;63015;45.378;20.360;2023-12-20T01:30:29;48.65;;;23.40;;
74541;SDS011;63015;45.378;20.360;2023-12-20T01:32:29;56.45;;;24.95;;
74541;SDS011;63015;45.378;20.360;2023-12-20T01:34:30;59.35;;;24.35;;
74541;SDS011;63015;45.378;20.360;2023-12-20T01:36:30;66.95;;;26.23;;
74541;SDS011;63015;45.378;20.360;2023-12-20T01:38:31;66.05;;;26.60;;
74541;SDS011;63015;45.378;20.360;2023-12-20T01:40:32;49.17;;;21.65;;
74541;SDS011;63015;45.378;20.360;2023-12-20T01:42:32;48.08;;;22.30;;
74541;SDS011;63015;45.378;20.360;2023-12-20T01:44:33;45.08;;;19.80;;
74541;SDS011;63015;45.378;20.360;2023-12-20T01:46:35;47.50;;;21.75;;
74541;SDS011;63015;45.378;20.360;2023-12-20T01:48:35;61.22;;;24.27;;
74541;SDS011;63015;45.378;20.360;2023-12-20T01:50:36;65.28;;;25.85;;
74541;SDS011;63015;45.378;20.360;2023-12-20T01:52:38;47.03;;;20.40;;
74541;SDS011;63015;45.378;20.360;2023-12-20T01:54:38;49.88;;;21.95;;
74541;SDS011;63015;45.378;20.360;2023-12-20T01:56:43;35.50;;;15.65;;
74541;SDS011;63015;45.378;20.360;2023-12-20T01:58:44;57.28;;;23.42;;
74541;SDS011;63015;45.378;20.360;2023-12-20T02:00:46;59.05;;;23.48;;
74541;SDS011;63015;45.378;20.360;2023-12-20T02:02:46;105.15;;;36.40;;
74541;SDS011;63015;45.378;20.360;2023-12-20T02:04:47;114.55;;;41.63;;
74541;SDS011;63015;45.378;20.360;2023-12-20T02:06:48;99.10;;;40.28;;
74541;SDS011;63015;45.378;20.360;2023-12-20T02:08:52;84.00;;;32.60;;
74541;SDS011;63015;45.378;20.360;2023-12-20T02:10:52;66.57;;;27.50;;
74541;SDS011;63015;45.378;20.360;2023-12-20T02:12:54;62.95;;;28.38;;
74541;SDS011;63015;45.378;20.360;2023-12-20T02:14:55;47.17;;;21.08;;
74541;SDS011;63015;45.378;20.360;2023-12-20T02:16:55;59.55;;;26.00;;
74541;SDS011;63015;45.378;20.360;2023-12-20T02:18:56;45.13;;;20.60;;
74541;SDS011;63015;45.378;20.360;2023-12-20T02:20:57;26.63;;;10.98;;
74541;SDS011;63015;45.378;20.360;2023-12-20T02:22:57;37.22;;;18.60;;
74541;SDS011;63015;45.378;20.360;2023-12-20T02:24:58;43.67;;;21.42;;
74541;SDS011;63015;45.378;20.360;2023-12-20T02:26:58;46.13;;;21.13;;
74541;SDS011;63015;45.378;20.360;2023-12-20T02:29:06;42.70;;;21.10;;
74541;SDS011;63015;45.378;20.360;2023-12-20T02:31:07;36.58;;;16.75;;
74541;SDS011;63015;45.378;20.360;2023-12-20T02:33:07;35.60;;;16.48;;
74541;SDS011;63015;45.378;20.360;2023-12-20T02:35:11;40.92;;;18.58;;
74541;SDS011;63015;45.378;20.360;2023-12-20T02:37:13;42.53;;;18.88;;
74541;SDS011;63015;45.378;20.360;2023-12-20T02:39:14;46.72;;;21.90;;
74541;SDS011;63015;45.378;20.360;2023-12-20T02:41:14;43.60;;;20.23;;
74541;SDS011;63015;45.378;20.360;2023-12-20T02:43:18;35.65;;;16.95;;
74541;SDS011;63015;45.378;20.360;2023-12-20T02:45:18;31.05;;;15.95;;
74541;SDS011;63015;45.378;20.360;2023-12-20T02:47:19;34.55;;;14.48;;
74541;SDS011;63015;45.378;20.360;2023-12-20T02:49:23;30.13;;;13.85;;
74541;SDS011;63015;45.378;20.360;2023-12-20T02:51:24;26.02;;;12.95;;
74541;SDS011;63015;45.378;20.360;2023-12-20T02:53:25;27.73;;;13.77;;
74541;SDS011;63015;45.378;20.360;2023-12-20T02:55:25;27.90;;;15.13;;
74541;SDS011;63015;45.378;20.360;2023-12-20T02:57:27;27.30;;;14.18;;
74541;SDS011;63015;45.378;20.360;2023-12-20T02:59:28;26.50;;;14.75;;
74541;SDS011;63015;45.378;20.360;2023-12-20T03:01:29;23.63;;;12.50;;
74541;SDS011;63015;45.378;20.360;2023-12-20T03:03:29;27.55;;;14.80;;
74541;SDS011;63015;45.378;20.360;2023-12-20T03:05:30;30.55;;;14.18;;
74541;SDS011;63015;45.378;20.360;2023-12-20T03:07:31;35.30;;;15.85;;
74541;SDS011;63015;45.378;20.360;2023-12-20T03:09:31;31.10;;;14.63;;
74541;SDS011;63015;45.378;20.360;2023-12-20T03:11:32;27.85;;;13.98;;
74541;SDS011;63015;45.378;20.360;2023-12-20T03:13:33;26.73;;;13.70;;
74541;SDS011;63015;45.378;20.360;2023-12-20T03:15:33;26.50;;;13.77;;
74541;SDS011;63015;45.378;20.360;2023-12-20T03:17:34;26.13;;;13.25;;
74541;SDS011;63015;45.378;20.360;2023-12-20T03:19:35;26.05;;;13.80;;
74541;SDS011;63015;45.378;20.360;2023-12-20T03:21:35;26.13;;;13.40;;
74541;SDS011;63015;45.378;20.360;2023-12-20T03:23:36;25.35;;;11.93;;
74541;SDS011;63015;45.378;20.360;2023-12-20T03:25:36;18.15;;;9.15;;
74541;SDS011;63015;45.378;20.360;2023-12-20T03:27:37;21.23;;;10.43;;
74541;SDS011;63015;45.378;20.360;2023-12-20T03:29:41;23.85;;;11.55;;
74541;SDS011;63015;45.378;20.360;2023-12-20T03:31:41;22.98;;;12.27;;
74541;SDS011;63015;45.378;20.360;2023-12-20T03:33:42;22.83;;;12.18;;
74541;SDS011;63015;45.378;20.360;2023-12-20T03:35:42;20.05;;;9.82;;
74541;SDS011;63015;45.378;20.360;2023-12-20T03:37:43;19.48;;;10.63;;
74541;SDS011;63015;45.378;20.360;2023-12-20T03:39:43;22.98;;;10.45;;
74541;SDS011;63015;45.378;20.360;2023-12-20T03:41:44;24.25;;;11.88;;
74541;SDS011;63015;45.378;20.360;2023-12-20T03:43:44;23.08;;;11.02;;
74541;SDS011;63015;45.378;20.360;2023-12-20T03:45:45;21.83;;;11.57;;
74541;SDS011;63015;45.378;20.360;2023-12-20T03:47:46;23.52;;;11.43;;
74541;SDS011;63015;45.378;20.360;2023-12-20T03:49:46;22.10;;;10.48;;
74541;SDS011;63015;45.378;20.360;2023-12-20T03:51:47;29.00;;;12.50;;
74541;SDS011;63015;45.378;20.360;2023-12-20T03:53:47;24.45;;;11.73;;
74541;SDS011;63015;45.378;20.360;2023-12-20T03:55:48;21.85;;;11.40;;
74541;SDS011;63015;45.378;20.360;2023-12-20T03:57:49;21.52;;;11.27;;
74541;SDS011;63015;45.378;20.360;2023-12-20T03:59:49;22.08;;;11.05;;
74541;SDS011;63015;45.378;20.360;2023-12-20T04:01:50;17.02;;;8.82;;
74541;SDS011;63015;45.378;20.360;2023-12-20T04:03:51;15.43;;;7.93;;
74541;SDS011;63015;45.378;20.360;2023-12-20T04:05:51;19.45;;;8.65;;
74541;SDS011;63015;45.378;20.360;2023-12-20T04:07:52;18.05;;;9.38;;
74541;SDS011;63015;45.378;20.360;2023-12-20T04:09:52;14.68;;;8.30;;
74541;SDS011;63015;45.378;20.360;2023-12-20T04:11:53;24.17;;;10.95;;
74541;SDS011;63015;45.378;20.360;2023-12-20T04:13:53;22.17;;;10.75;;
74541;SDS011;63015;45.378;20.360;2023-12-20T04:15:54;20.85;;;10.13;;
74541;SDS011;63015;45.378;20.360;2023-12-20T04:17:54;26.65;;;11.68;;
74541;SDS011;63015;45.378;20.360;2023-12-20T04:19:55;30.65;;;12.32;;
74541;SDS011;63015;45.378;20.360;2023-12-20T04:21:55;30.83;;;13.60;;
74541;SDS011;63015;45.378;20.360;2023-12-20T04:23:56;32.03;;;14.35;;
74541;SDS011;63015;45.378;20.360;2023-12-20T04:25:57;28.35;;;13.13;;
74541;SDS011;63015;45.378;20.360;2023-12-20T04:27:57;30.75;;;14.07;;
74541;SDS011;63015;45.378;20.360;2023-12-20T04:29:58;24.73;;;11.35;;
74541;SDS011;63015;45.378;20.360;2023-12-20T04:31:59;27.90;;;12.82;;
74541;SDS011;63015;45.378;20.360;2023-12-20T04:33:59;29.65;;;14.30;;
74541;SDS011;63015;45.378;20.360;2023-12-20T04:36:00;31.45;;;14.75;;
74541;SDS011;63015;45.378;20.360;2023-12-20T04:38:00;28.58;;;13.85;;
74541;SDS011;63015;45.378;20.360;2023-12-20T04:40:01;33.70;;;15.13;;
74541;SDS011;63015;45.378;20.360;2023-12-20T04:42:02;31.67;;;15.18;;
74541;SDS011;63015;45.378;20.360;2023-12-20T04:44:03;38.10;;;16.30;;
74541;SDS011;63015;45.378;20.360;2023-12-20T04:46:03;32.13;;;16.08;;
74541;SDS011;63015;45.378;20.360;2023-12-20T04:48:04;36.78;;;17.15;;
74541;SDS011;63015;45.378;20.360;2023-12-20T04:50:05;36.75;;;18.17;;
74541;SDS011;63015;45.378;20.360;2023-12-20T04:52:06;45.97;;;19.40;;
74541;SDS011;63015;45.378;20.360;2023-12-20T04:54:07;43.80;;;19.67;;
74541;SDS011;63015;45.378;20.360;2023-12-20T04:56:08;42.63;;;18.73;;
74541;SDS011;63015;45.378;20.360;2023-12-20T04:58:08;35.58;;;17.63;;
74541;SDS011;63015;45.378;20.360;2023-12-20T05:00:10;38.22;;;17.85;;
74541;SDS011;63015;45.378;20.360;2023-12-20T05:02:11;45.13;;;20.55;;
74541;SDS011;63015;45.378;20.360;2023-12-20T05:04:13;40.95;;;19.27;;
74541;SDS011;63015;45.378;20.360;2023-12-20T05:06:14;40.53;;;18.23;;
74541;SDS011;63015;45.378;20.360;2023-12-20T05:08:15;40.13;;;17.35;;
74541;SDS011;63015;45.378;20.360;2023-12-20T05:10:16;32.53;;;16.98;;
74541;SDS011;63015;45.378;20.360;2023-12-20T05:12:16;37.00;;;17.48;;
74541;SDS011;63015;45.378;20.360;2023-12-20T05:14:17;38.20;;;17.05;;
74541;SDS011;63015;45.378;20.360;2023-12-20T05:16:17;38.67;;;17.15;;
74541;SDS011;63015;45.378;20.360;2023-12-20T05:18:18;41.05;;;17.70;;
74541;SDS011;63015;45.378;20.360;2023-12-20T05:20:18;38.35;;;18.98;;
74541;SDS011;63015;45.378;20.360;2023-12-20T05:22:19;36.38;;;17.13;;
74541;SDS011;63015;45.378;20.360;2023-12-20T05:24:20;32.00;;;15.98;;
74541;SDS011;63015;45.378;20.360;2023-12-20T05:26:20;33.55;;;15.35;;
74541;SDS011;63015;45.378;20.360;2023-12-20T05:28:21;34.00;;;15.52;;
74541;SDS011;63015;45.378;20.360;2023-12-20T05:30:22;30.98;;;14.70;;
74541;SDS011;63015;45.378;20.360;2023-12-20T05:32:23;30.55;;;14.18;;
74541;SDS011;63015;45.378;20.360;2023-12-20T05:34:24;28.95;;;14.65;;
74541;SDS011;63015;45.378;20.360;2023-12-20T05:36:24;32.30;;;14.90;;
74541;SDS011;63015;45.378;20.360;2023-12-20T05:38:25;24.85;;;11.93;;
74541;SDS011;63015;45.378;20.360;2023-12-20T05:40:25;29.02;;;15.10;;
74541;SDS011;63015;45.378;20.360;2023-12-20T05:42:26;27.35;;;14.68;;
74541;SDS011;63015;45.378;20.360;2023-12-20T05:44:26;24.48;;;11.75;;
74541;SDS011;63015;45.378;20.360;2023-12-20T05:46:27;28.67;;;13.27;;
74541;SDS011;63015;45.378;20.360;2023-12-20T05:48:27;28.67;;;15.02;;
74541;SDS011;63015;45.378;20.360;2023-12-20T05:50:28;28.55;;;14.18;;
74541;SDS011;63015;45.378;20.360;2023-12-20T05:52:28;30.67;;;15.07;;
74541;SDS011;63015;45.378;20.360;2023-12-20T05:54:29;35.33;;;15.98;;
74541;SDS011;63015;45.378;20.360;2023-12-20T05:56:30;33.55;;;12.95;;
74541;SDS011;63015;45.378;20.360;2023-12-20T05:58:31;37.88;;;16.00;;
74541;SDS011;63015;45.378;20.360;2023-12-20T06:00:33;39.08;;;17.23;;
74541;SDS011;63015;45.378;20.360;2023-12-20T06:02:33;44.67;;;18.92;;
74541;SDS011;63015;45.378;20.360;2023-12-20T06:04:34;47.85;;;21.85;;
74541;SDS011;63015;45.378;20.360;2023-12-20T06:06:39;34.60;;;17.60;;
74541;SDS011;63015;45.378;20.360;2023-12-20T06:08:41;45.72;;;18.27;;
74541;SDS011;63015;45.378;20.360;2023-12-20T06:10:44;38.53;;;17.73;;
74541;SDS011;63015;45.378;20.360;2023-12-20T06:12:45;40.00;;;18.25;;
74541;SDS011;63015;45.378;20.360;2023-12-20T06:14:48;42.47;;;19.10;;
74541;SDS011;63015;45.378;20.360;2023-12-20T06:16:49;38.08;;;19.77;;
74541;SDS011;63015;45.378;20.360;2023-12-20T06:18:49;43.00;;;19.35;;
74541;SDS011;63015;45.378;20.360;2023-12-20T06:20:50;41.63;;;18.85;;
74541;SDS011;63015;45.378;20.360;2023-12-20T06:22:50;37.95;;;19.55;;
74541;SDS011;63015;45.378;20.360;2023-12-20T06:24:51;40.38;;;18.88;;
74541;SDS011;63015;45.378;20.360;2023-12-20T06:26:51;43.13;;;18.55;;
74541;SDS011;63015;45.378;20.360;2023-12-20T06:28:52;39.65;;;18.13;;
74541;SDS011;63015;45.378;20.360;2023-12-20T06:30:53;42.80;;;17.02;;
74541;SDS011;63015;45.378;20.360;2023-12-20T06:32:54;47.60;;;18.55;;
74541;SDS011;63015;45.378;20.360;2023-12-20T06:34:57;40.15;;;17.98;;
74541;SDS011;63015;45.378;20.360;2023-12-20T06:36:59;39.03;;;18.50;;
74541;SDS011;63015;45.378;20.360;2023-12-20T06:38:59;34.13;;;15.85;;
74541;SDS011;63015;45.378;20.360;2023-12-20T06:41:12;48.58;;;19.58;;
74541;SDS011;63015;45.378;20.360;2023-12-20T06:43:14;54.17;;;19.85;;
74541;SDS011;63015;45.378;20.360;2023-12-20T06:45:14;36.00;;;14.82;;
74541;SDS011;63015;45.378;20.360;2023-12-20T06:47:15;32.38;;;15.35;;
74541;SDS011;63015;45.378;20.360;2023-12-20T06:49:16;37.95;;;17.67;;
74541;SDS011;63015;45.378;20.360;2023-12-20T06:51:16;36.72;;;16.13;;
74541;SDS011;63015;45.378;20.360;2023-12-20T06:53:17;39.75;;;17.65;;
74541;SDS011;63015;45.378;20.360;2023-12-20T06:55:18;44.58;;;17.63;;
74541;SDS011;63015;45.378;20.360;2023-12-20T06:57:19;43.53;;;20.10;;
74541;SDS011;63015;45.378;20.360;2023-12-20T06:59:20;45.30;;;21.00;;
74541;SDS011;63015;45.378;20.360;2023-12-20T07:01:20;44.38;;;21.40;;
74541;SDS011;63015;45.378;20.360;2023-12-20T07:03:21;55.20;;;24.40;;
74541;SDS011;63015;45.378;20.360;2023-12-20T07:05:21;55.58;;;26.13;;
74541;SDS011;63015;45.378;20.360;2023-12-20T07:07:22;55.40;;;26.48;;
74541;SDS011;63015;45.378;20.360;2023-12-20T07:09:24;48.55;;;23.48;;
74541;SDS011;63015;45.378;20.360;2023-12-20T07:11:25;46.88;;;22.77;;
74541;SDS011;63015;45.378;20.360;2023-12-20T07:13:26;41.10;;;21.10;;
74541;SDS011;63015;45.378;20.360;2023-12-20T07:15:27;41.85;;;20.55;;
74541;SDS011;63015;45.378;20.360;2023-12-20T07:17:29;40.58;;;20.05;;
74541;SDS011;63015;45.378;20.360;2023-12-20T07:19:30;34.60;;;17.10;;
74541;SDS011;63015;45.378;20.360;2023-12-20T07:21:30;37.10;;;18.25;;
74541;SDS011;63015;45.378;20.360;2023-12-20T07:23:31;34.97;;;16.35;;
74541;SDS011;63015;45.378;20.360;2023-12-20T07:25:31;34.70;;;18.23;;
74541;SDS011;63015;45.378;20.360;2023-12-20T07:27:32;34.38;;;16.00;;
74541;SDS011;63015;45.378;20.360;2023-12-20T07:29:33;31.88;;;16.35;;
74541;SDS011;63015;45.378;20.360;2023-12-20T07:31:33;34.60;;;17.75;;
74541;SDS011;63015;45.378;20.360;2023-12-20T07:33:35;35.35;;;17.35;;
74541;SDS011;63015;45.378;20.360;2023-12-20T07:35:35;41.50;;;19.45;;
74541;SDS011;63015;45.378;20.360;2023-12-20T07:37:37;35.95;;;19.67;;
74541;SDS011;63015;45.378;20.360;2023-12-20T07:39:39;35.38;;;18.42;;
74541;SDS011;63015;45.378;20.360;2023-12-20T07:41:40;39.75;;;18.08;;
74541;SDS011;63015;45.378;20.360;2023-12-20T07:43:41;37.50;;;18.15;;
74541;SDS011;63015;45.378;20.360;2023-12-20T07:45:41;33.70;;;16.40;;
74541;SDS011;63015;45.378;20.360;2023-12-20T07:47:42;31.50;;;14.88;;
74541;SDS011;63015;45.378;20.360;2023-12-20T07:49:42;31.67;;;16.52;;
74541;SDS011;63015;45.378;20.360;2023-12-20T07:51:43;57.92;;;22.75;;
74541;SDS011;63015;45.378;20.360;2023-12-20T07:53:43;155.35;;;48.22;;
74541;SDS011;63015;45.378;20.360;2023-12-20T07:55:44;198.10;;;56.05;;
74541;SDS011;63015;45.378;20.360;2023-12-20T07:57:45;173.18;;;52.88;;
74541;SDS011;63015;45.378;20.360;2023-12-20T07:59:45;183.13;;;54.08;;
74541;SDS011;63015;45.378;20.360;2023-12-20T08:01:46;113.32;;;43.05;;
74541;SDS011;63015;45.378;20.360;2023-12-20T08:03:46;62.00;;;27.70;;
74541;SDS011;63015;45.378;20.360;2023-12-20T08:05:51;51.95;;;23.88;;
74541;SDS011;63015;45.378;20.360;2023-12-20T08:07:51;40.08;;;20.30;;
74541;SDS011;63015;45.378;20.360;2023-12-20T08:09:52;39.55;;;20.13;;
74541;SDS011;63015;45.378;20.360;2023-12-20T08:11:54;46.90;;;23.40;;
74541;SDS011;63015;45.378;20.360;2023-12-20T08:13:55;35.30;;;17.55;;
74541;SDS011;63015;45.378;20.360;2023-12-20T08:15:56;36.95;;;18.83;;
74541;SDS011;63015;45.378;20.360;2023-12-20T08:17:56;38.78;;;18.38;;
74541;SDS011;63015;45.378;20.360;2023-12-20T08:19:57;33.67;;;18.23;;
74541;SDS011;63015;45.378;20.360;2023-12-20T08:21:57;40.78;;;19.55;;
74541;SDS011;63015;45.378;20.360;2023-12-20T08:23:58;37.42;;;17.90;;
74541;SDS011;63015;45.378;20.360;2023-12-20T08:26:07;33.00;;;17.48;;
74541;SDS011;63015;45.378;20.360;2023-12-20T08:28:08;37.50;;;18.60;;
74541;SDS011;63015;45.378;20.360;2023-12-20T08:30:08;33.20;;;15.98;;
74541;SDS011;63015;45.378;20.360;2023-12-20T08:32:10;34.45;;;18.52;;
74541;SDS011;63015;45.378;20.360;2023-12-20T08:34:10;40.15;;;20.00;;
74541;SDS011;63015;45.378;20.360;2023-12-20T08:36:12;52.60;;;21.92;;
74541;SDS011;63015;45.378;20.360;2023-12-20T08:38:13;60.10;;;22.45;;
74541;SDS011;63015;45.378;20.360;2023-12-20T08:40:14;55.17;;;23.13;;
74541;SDS011;63015;45.378;20.360;2023-12-20T08:42:15;39.65;;;18.25;;
74541;SDS011;63015;45.378;20.360;2023-12-20T08:44:15;37.30;;;20.95;;
74541;SDS011;63015;45.378;20.360;2023-12-20T08:46:16;43.25;;;23.40;;
74541;SDS011;63015;45.378;20.360;2023-12-20T08:48:16;48.75;;;27.15;;
74541;SDS011;63015;45.378;20.360;2023-12-20T08:50:17;52.45;;;25.60;;
74541;SDS011;63015;45.378;20.360;2023-12-20T08:52:18;49.17;;;27.08;;
74541;SDS011;63015;45.378;20.360;2023-12-20T08:54:18;52.97;;;26.65;;
74541;SDS011;63015;45.378;20.360;2023-12-20T08:56:19;45.88;;;22.65;;
74541;SDS011;63015;45.378;20.360;2023-12-20T08:58:20;41.83;;;21.65;;
74541;SDS011;63015;45.378;20.360;2023-12-20T09:00:21;40.25;;;19.83;;
74541;SDS011;63015;45.378;20.360;2023-12-20T09:02:24;41.65;;;22.13;;
74541;SDS011;63015;45.378;20.360;2023-12-20T09:04:31;36.35;;;18.60;;
74541;SDS011;63015;45.378;20.360;2023-12-20T09:06:31;36.88;;;20.92;;
74541;SDS011;63015;45.378;20.360;2023-12-20T09:08:32;41.83;;;22.13;;
74541;SDS011;63015;45.378;20.360;2023-12-20T09:10:33;35.88;;;19.42;;
74541;SDS011;63015;45.378;20.360;2023-12-20T09:12:34;35.50;;;19.33;;
74541;SDS011;63015;45.378;20.360;2023-12-20T09:14:34;35.25;;;19.77;;
74541;SDS011;63015;45.378;20.360;2023-12-20T09:16:35;43.13;;;22.33;;
74541;SDS011;63015;45.378;20.360;2023-12-20T09:18:35;43.80;;;22.80;;
74541;SDS011;63015;45.378;20.360;2023-12-20T09:20:36;43.05;;;21.02;;
74541;SDS011;63015;45.378;20.360;2023-12-20T09:22:44;37.00;;;20.02;;
74541;SDS011;63015;45.378;20.360;2023-12-20T09:24:45;35.58;;;19.40;;
74541;SDS011;63015;45.378;20.360;2023-12-20T09:26:45;37.60;;;19.70;;
74541;SDS011;63015;45.378;20.360;2023-12-20T09:28:46;36.47;;;18.63;;
74541;SDS011;63015;45.378;20.360;2023-12-20T09:30:46;39.67;;;20.15;;
74541;SDS011;63015;45.378;20.360;2023-12-20T09:32:47;36.85;;;17.95;;
74541;SDS011;63015;45.378;20.360;2023-12-20T09:34:48;35.75;;;19.95;;
74541;SDS011;63015;45.378;20.360;2023-12-20T09:36:49;37.17;;;21.10;;
74541;SDS011;63015;45.378;20.360;2023-12-20T09:38:50;39.13;;;21.63;;
74541;SDS011;63015;45.378;20.360;2023-12-20T09:40:51;42.58;;;22.63;;
74541;SDS011;63015;45.378;20.360;2023-12-20T09:45:03;38.00;;;19.65;;
74541;SDS011;63015;45.378;20.360;2023-12-20T09:47:08;39.63;;;20.73;;
74541;SDS011;63015;45.378;20.360;2023-12-20T09:49:08;40.95;;;20.90;;
74541;SDS011;63015;45.378;20.360;2023-12-20T09:51:10;42.33;;;24.17;;
74541;SDS011;63015;45.378;20.360;2023-12-20T09:53:11;40.58;;;21.77;;
74541;SDS011;63015;45.378;20.360;2023-12-20T09:55:16;38.47;;;21.23;;
74541;SDS011;63015;45.378;20.360;2023-12-20T09:57:18;42.95;;;22.10;;
74541;SDS011;63015;45.378;20.360;2023-12-20T09:59:21;46.67;;;26.77;;
74541;SDS011;63015;45.378;20.360;2023-12-20T10:01:22;41.85;;;21.42;;
74541;SDS011;63015;45.378;20.360;2023-12-20T10:03:24;43.83;;;23.02;;
74541;SDS011;63015;45.378;20.360;2023-12-20T10:05:30;46.40;;;24.38;;
74541;SDS011;63015;45.378;20.360;2023-12-20T10:07:32;50.25;;;24.40;;
74541;SDS011;63015;45.378;20.360;2023-12-20T10:09:32;47.80;;;24.30;;
74541;SDS011;63015;45.378;20.360;2023-12-20T10:11:35;48.47;;;25.38;;
74541;SDS011;63015;45.378;20.360;2023-12-20T10:13:39;45.58;;;23.88;;
74541;SDS011;63015;45.378;20.360;2023-12-20T10:15:44;37.78;;;19.77;;
74541;SDS011;63015;45.378;20.360;2023-12-20T10:17:44;41.25;;;22.35;;
74541;SDS011;63015;45.378;20.360;2023-12-20T10:19:49;42.25;;;24.70;;
74541;SDS011;63015;45.378;20.360;2023-12-20T10:21:49;38.20;;;20.65;;
74541;SDS011;63015;45.378;20.360;2023-12-20T10:23:50;29.08;;;15.55;;
74541;SDS011;63015;45.378;20.360;2023-12-20T10:25:57;38.85;;;21.70;;
74541;SDS011;63015;45.378;20.360;2023-12-20T10:30:14;41.17;;;20.05;;
74541;SDS011;63015;45.378;20.360;2023-12-20T10:32:22;35.88;;;18.38;;
74541;SDS011;63015;45.378;20.360;2023-12-20T10:34:26;43.90;;;22.75;;
74541;SDS011;63015;45.378;20.360;2023-12-20T10:36:30;43.08;;;22.08;;
74541;SDS011;63015;45.378;20.360;2023-12-20T10:38:33;38.88;;;22.33;;
74541;SDS011;63015;45.378;20.360;2023-12-20T10:40:36;39.47;;;20.08;;
74541;SDS011;63015;45.378;20.360;2023-12-20T10:42:37;38.55;;;21.05;;
74541;SDS011;63015;45.378;20.360;2023-12-20T10:44:41;38.88;;;20.48;;
74541;SDS011;63015;45.378;20.360;2023-12-20T10:46:41;32.67;;;15.95;;
74541;SDS011;63015;45.378;20.360;2023-12-20T10:48:47;45.63;;;23.80;;
74541;SDS011;63015;45.378;20.360;2023-12-20T10:50:50;43.28;;;21.63;;
74541;SDS011;63015;45.378;20.360;2023-12-20T10:52:51;48.85;;;24.15;;
74541;SDS011;63015;45.378;20.360;2023-12-20T10:54:55;50.25;;;26.08;;
74541;SDS011;63015;45.378;20.360;2023-12-20T10:56:56;40.45;;;21.05;;
74541;SDS011;63015;45.378;20.360;2023-12-20T10:58:57;48.03;;;24.33;;
74541;SDS011;63015;45.378;20.360;2023-12-20T11:01:04;38.47;;;19.85;;
74541;SDS011;63015;45.378;20.360;2023-12-20T11:03:05;33.70;;;18.73;;
74541;SDS011;63015;45.378;20.360;2023-12-20T11:07:47;43.30;;;23.77;;
74541;SDS011;63015;45.378;20.360;2023-12-20T11:10:01;36.30;;;18.05;;
74541;SDS011;63015;45.378;20.360;2023-12-20T11:12:41;34.03;;;16.27;;
74541;SDS011;63015;45.378;20.360;2023-12-20T11:14:50;42.95;;;22.60;;
74541;SDS011;63015;45.378;20.360;2023-12-20T11:19:17;49.50;;;24.63;;
74541;SDS011;63015;45.378;20.360;2023-12-20T11:21:17;39.88;;;19.40;;
74541;SDS011;63015;45.378;20.360;2023-12-20T11:23:18;39.42;;;18.33;;
74541;SDS011;63015;45.378;20.360;2023-12-20T11:25:19;44.97;;;21.92;;
74541;SDS011;63015;45.378;20.360;2023-12-20T11:27:22;45.72;;;21.83;;
74541;SDS011;63015;45.378;20.360;2023-12-20T11:29:33;41.08;;;20.38;;
74541;SDS011;63015;45.378;20.360;2023-12-20T11:31:39;32.50;;;17.48;;
74541;SDS011;63015;45.378;20.360;2023-12-20T11:33:40;37.05;;;19.65;;
74541;SDS011;63015;45.378;20.360;2023-12-20T11:35:41;37.97;;;18.48;;
74541;SDS011;63015;45.378;20.360;2023-12-20T11:37:42;42.35;;;19.80;;
74541;SDS011;63015;45.378;20.360;2023-12-20T11:39:43;32.65;;;17.23;;
74541;SDS011;63015;45.378;20.360;2023-12-20T11:41:44;34.55;;;18.58;;
74541;SDS011;63015;45.378;20.360;2023-12-20T11:43:45;26.48;;;15.05;;
74541;SDS011;63015;45.378;20.360;2023-12-20T11:45:49;32.15;;;17.17;;
74541;SDS011;63015;45.378;20.360;2023-12-20T11:47:51;25.63;;;13.18;;
74541;SDS011;63015;45.378;20.360;2023-12-20T11:49:54;31.50;;;16.77;;